Terminal Aerodrome Forecast
Issued by NWS Blacksburg, VA

Home | Current Version | Previous Version | Text Only | Print | Product List | Glossary On
Versions: 1 2 3 4 5 6 7 8 9 10 11 12 13 14 15 16 17 18 19 20 21 22 23 24 25 26 27 28
949
FTUS41 KRNK 142340
TAFDAN
TAF
KDAN 142340Z 1500/1524 12003KT P6SM OVC060
     FM150100 14005KT 6SM -SN SCT020 OVC035
     FM150300 08004KT 3SM -SN OVC020
     FM150600 05003KT 1SM -SN BR OVC011
     FM151200 06004KT 1 1/2SM -FZDZPL BR OVC004=

USA.gov is the U.S. government's official web portal to all federal, state and local government web resources and services.